createdAt,value
2022-11-29T00:01:52.038Z,70.82
2022-11-29T00:04:20.635Z,70.89
2022-11-29T00:06:54.213Z,70.59
2022-11-29T00:09:27.586Z,70.83
2022-11-29T00:12:12.571Z,70.26
2022-11-29T00:14:40.034Z,70.67
2022-11-29T00:17:07.304Z,70.83
2022-11-29T00:19:37.144Z,70.98
2022-11-29T00:22:04.672Z,70.48
2022-11-29T00:24:32.641Z,69.96
2022-11-29T00:26:59.820Z,70.72
2022-11-29T00:29:29.658Z,70.77
2022-11-29T00:31:56.451Z,70.91
2022-11-29T00:34:26.405Z,71.43
2022-11-29T00:36:53.239Z,70.78
2022-11-29T00:39:23.219Z,71.28
2022-11-29T00:41:50.034Z,71.61
2022-11-29T00:44:20.169Z,71.81
2022-11-29T00:46:48.248Z,72.11
2022-11-29T00:49:19.579Z,71.75
2022-11-29T00:51:46.997Z,72.13
2022-11-29T00:54:13.851Z,72.35
2022-11-29T00:56:40.698Z,72.55
2022-11-29T00:59:07.503Z,71.61
2022-11-29T01:01:34.361Z,71.88
2022-11-29T01:04:02.239Z,71.55
2022-11-29T01:06:29.143Z,72.01
2022-11-29T01:08:55.973Z,72.22
2022-11-29T01:11:25.804Z,71.51
2022-11-29T01:13:56.765Z,72.34
2022-11-29T01:16:24.115Z,72.21
2022-11-29T01:18:50.924Z,72.72
2022-11-29T01:21:22.590Z,73.30
2022-11-29T01:23:53.581Z,72.77
2022-11-29T01:26:23.647Z,72.60
2022-11-29T01:28:52.377Z,72.36
2022-11-29T01:31:25.183Z,71.74
2022-11-29T01:34:01.146Z,71.89
2022-11-29T01:36:28.479Z,71.76
2022-11-29T01:38:55.634Z,71.19
2022-11-29T01:41:25.242Z,71.79
2022-11-29T01:44:29.714Z,71.65
2022-11-29T01:46:57.734Z,72.53
2022-11-29T01:49:47.509Z,72.33
2022-11-29T01:52:22.703Z,72.44
2022-11-29T01:54:52.673Z,73.22
2022-11-29T01:57:20.954Z,73.37
2022-11-29T01:59:53.531Z,73.14
2022-11-29T02:02:27.239Z,73.25
2022-11-29T02:04:54.436Z,73.06
2022-11-29T02:07:21.154Z,72.66
2022-11-29T02:09:47.770Z,73.24
2022-11-29T02:12:29.958Z,73.91
2022-11-29T02:15:08.929Z,73.19
2022-11-29T02:18:09.892Z,73.56
2022-11-29T02:20:51.868Z,73.89
2022-11-29T02:23:49.261Z,73.68
2022-11-29T02:26:53.592Z,73.68
2022-11-29T02:29:51.555Z,72.96
2022-11-29T02:32:46.793Z,73.14
2022-11-29T02:35:38.471Z,73.53
2022-11-29T02:38:23.881Z,73.48
2022-11-29T02:41:05.490Z,73.40
2022-11-29T02:43:59.192Z,72.92
2022-11-29T02:46:44.651Z,73.41
2022-11-29T02:49:29.923Z,72.79
2022-11-29T02:52:07.867Z,73.29
2022-11-29T02:55:13.299Z,72.98
2022-11-29T02:57:57.703Z,73.40
2022-11-29T03:00:25.025Z,73.94
2022-11-29T03:02:52.066Z,73.61
2022-11-29T03:05:22.712Z,73.27
2022-11-29T03:08:22.970Z,73.12
2022-11-29T03:10:58.881Z,73.56
2022-11-29T03:13:48.334Z,73.04
2022-11-29T03:16:28.749Z,72.60
2022-11-29T03:19:40.131Z,72.99
2022-11-29T03:22:31.894Z,73.96
2022-11-29T03:25:01.555Z,73.38
2022-11-29T03:27:53.326Z,73.51
2022-11-29T03:30:21.761Z,73.12
2022-11-29T03:33:13.709Z,73.97
2022-11-29T03:35:48.514Z,73.73
2022-11-29T03:38:26.077Z,73.98
2022-11-29T03:41:31.480Z,74.52
2022-11-29T03:44:20.283Z,73.83
2022-11-29T03:46:58.859Z,73.82
2022-11-29T03:49:34.659Z,73.92
2022-11-29T03:52:01.377Z,74.17
2022-11-29T03:54:49.651Z,74.45
2022-11-29T03:57:23.554Z,75.19
2022-11-29T04:00:01.595Z,74.47
2022-11-29T04:02:56.726Z,74.34
2022-11-29T04:05:48.334Z,74.70
2022-11-29T04:09:01.743Z,74.46
2022-11-29T04:11:55.030Z,75.07
2022-11-29T04:15:11.578Z,74.79
2022-11-29T04:18:07.771Z,74.56
2022-11-29T04:20:53.238Z,74.04
2022-11-29T04:23:29.163Z,73.50
2022-11-29T04:26:35.790Z,74.37
2022-11-29T04:29:15.575Z,74.60
2022-11-29T04:31:48.362Z,74.48
2022-11-29T04:34:30.051Z,73.84
2022-11-29T04:37:08.148Z,73.89
2022-11-29T04:40:16.681Z,74.00
2022-11-29T04:43:35.493Z,74.24
2022-11-29T04:46:11.319Z,74.09
2022-11-29T04:49:03.838Z,74.08
2022-11-29T04:51:46.875Z,73.75
2022-11-29T04:54:31.708Z,73.37
2022-11-29T04:57:13.875Z,72.46
2022-11-29T05:00:10.198Z,72.16
2022-11-29T05:03:00.603Z,72.66
2022-11-29T05:05:42.166Z,73.70
2022-11-29T05:08:39.567Z,73.47
2022-11-29T05:11:28.050Z,74.07
2022-11-29T05:14:25.445Z,74.57
2022-11-29T05:17:23.719Z,74.79
2022-11-29T05:20:33.131Z,74.88
2022-11-29T05:23:22.486Z,76.05
2022-11-29T05:26:01.921Z,74.74
2022-11-29T05:28:47.843Z,75.33
2022-11-29T05:31:44.575Z,75.94
2022-11-29T05:34:35.135Z,75.10
2022-11-29T05:37:23.774Z,76.08
2022-11-29T05:40:24.849Z,76.19
2022-11-29T05:43:18.032Z,75.99
2022-11-29T05:46:02.269Z,75.30
2022-11-29T05:48:37.778Z,75.89
2022-11-29T05:51:37.435Z,76.51
2022-11-29T05:54:22.932Z,76.50
2022-11-29T05:57:26.370Z,76.36
2022-11-29T06:00:04.258Z,75.92
2022-11-29T06:02:57.593Z,76.82
2022-11-29T06:05:33.552Z,77.75
2022-11-29T06:08:29.520Z,78.00
2022-11-29T06:11:06.744Z,78.21
2022-11-29T06:14:05.644Z,79.00
2022-11-29T06:16:41.543Z,78.75
2022-11-29T06:19:33.145Z,79.09
2022-11-29T06:22:21.087Z,79.69
2022-11-29T06:25:39.616Z,79.92
2022-11-29T06:28:15.313Z,78.81
2022-11-29T06:31:15.225Z,79.77
2022-11-29T06:34:01.147Z,80.34
2022-11-29T06:36:50.877Z,79.73
2022-11-29T06:39:17.825Z,80.73
2022-11-29T06:41:45.200Z,80.79
2022-11-29T06:44:12.687Z,80.20
2022-11-29T06:47:09.446Z,80.57
2022-11-29T06:49:46.930Z,80.55
2022-11-29T06:52:42.176Z,80.93
2022-11-29T06:55:24.765Z,80.75
2022-11-29T06:58:12.907Z,80.31
2022-11-29T07:00:56.972Z,80.10
2022-11-29T07:04:01.446Z,79.65
2022-11-29T07:06:29.049Z,80.57
2022-11-29T07:09:02.001Z,80.25
2022-11-29T07:11:29.377Z,79.80
2022-11-29T07:13:58.832Z,79.92
2022-11-29T07:17:04.216Z,80.04
2022-11-29T07:19:55.751Z,79.98
2022-11-29T07:22:57.863Z,81.41
2022-11-29T07:25:24.640Z,80.27
2022-11-29T07:28:01.672Z,79.86
2022-11-29T07:30:57.155Z,80.38
2022-11-29T07:33:56.511Z,80.73
2022-11-29T07:36:34.441Z,80.03
2022-11-29T07:39:47.044Z,80.62
2022-11-29T07:42:29.490Z,80.77
2022-11-29T07:45:07.171Z,80.25
2022-11-29T07:47:37.043Z,81.54
2022-11-29T07:50:07.318Z,81.49
2022-11-29T07:52:36.669Z,81.46
2022-11-29T07:55:06.681Z,80.62
2022-11-29T07:57:33.472Z,81.34
2022-11-29T08:00:00.634Z,81.42
2022-11-29T08:02:31.810Z,81.73
2022-11-29T08:04:59.077Z,82.09
2022-11-29T08:07:26.197Z,82.01
2022-11-29T08:09:53.489Z,83.09
2022-11-29T08:12:20.384Z,82.34
2022-11-29T08:14:47.524Z,82.55
2022-11-29T08:17:14.563Z,82.65
2022-11-29T08:19:41.373Z,82.41
2022-11-29T08:22:08.213Z,82.30
2022-11-29T08:24:34.992Z,82.23
2022-11-29T08:27:03.806Z,82.78
2022-11-29T08:29:30.822Z,82.49
2022-11-29T08:31:57.831Z,82.15
2022-11-29T08:34:25.078Z,81.68
2022-11-29T08:36:55.247Z,83.11
2022-11-29T08:39:25.512Z,82.78
2022-11-29T08:41:55.109Z,83.17
2022-11-29T08:44:24.843Z,83.23
2022-11-29T08:47:10.262Z,83.09
2022-11-29T08:49:57.041Z,82.59
2022-11-29T08:52:42.756Z,82.89
2022-11-29T08:55:09.777Z,82.57
2022-11-29T08:57:40.848Z,83.08
2022-11-29T09:00:11.391Z,83.08
2022-11-29T09:02:38.860Z,82.64
2022-11-29T09:05:07.378Z,81.75
2022-11-29T09:07:34.346Z,82.89
2022-11-29T09:10:05.636Z,83.10
2022-11-29T09:12:33.194Z,83.05
2022-11-29T09:15:01.467Z,83.59
2022-11-29T09:17:30.973Z,83.75
2022-11-29T09:19:57.982Z,83.51
2022-11-29T09:22:27.791Z,83.28
2022-11-29T09:24:56.719Z,83.68
2022-11-29T09:27:25.006Z,82.80
2022-11-29T09:29:54.171Z,83.42
2022-11-29T09:32:24.703Z,83.07
2022-11-29T09:34:51.537Z,82.93
2022-11-29T09:37:18.620Z,82.70
2022-11-29T09:39:49.069Z,82.74
2022-11-29T09:42:34.277Z,82.89
2022-11-29T09:45:11.351Z,81.31
2022-11-29T09:48:09.838Z,82.16
2022-11-29T09:50:47.446Z,82.37
2022-11-29T09:53:21.031Z,83.18
2022-11-29T09:56:07.705Z,81.60
2022-11-29T09:58:58.985Z,82.88
2022-11-29T10:01:38.235Z,82.67
2022-11-29T10:04:12.528Z,83.51
2022-11-29T10:06:45.295Z,82.92
2022-11-29T10:09:23.632Z,83.45
2022-11-29T10:11:53.385Z,83.05
2022-11-29T10:14:25.192Z,83.41
2022-11-29T10:17:00.462Z,82.62
2022-11-29T10:19:36.654Z,83.06
2022-11-29T10:22:13.310Z,83.05
2022-11-29T10:24:41.561Z,83.12
2022-11-29T10:27:18.633Z,82.49
2022-11-29T10:29:49.075Z,83.07
2022-11-29T10:32:15.944Z,82.55
2022-11-29T10:34:43.777Z,82.62
2022-11-29T10:37:16.804Z,82.95
2022-11-29T10:39:58.814Z,83.83
2022-11-29T10:42:46.989Z,83.66
2022-11-29T10:45:21.105Z,84.01
2022-11-29T10:47:49.974Z,84.10
2022-11-29T10:50:22.825Z,84.77
2022-11-29T10:52:49.450Z,83.88
2022-11-29T10:55:17.653Z,84.35
2022-11-29T10:58:13.940Z,84.17
2022-11-29T11:01:07.786Z,84.45
2022-11-29T11:03:52.832Z,84.36
2022-11-29T11:06:24.552Z,83.43
2022-11-29T11:09:12.516Z,83.55
2022-11-29T11:11:40.233Z,83.80
2022-11-29T11:14:22.085Z,83.69
2022-11-29T11:16:49.592Z,83.49
2022-11-29T11:19:35.290Z,83.51
2022-11-29T11:22:04.438Z,84.06
2022-11-29T11:24:40.812Z,84.16
2022-11-29T11:27:11.129Z,84.05
2022-11-29T11:29:43.555Z,84.31
2022-11-29T11:32:18.127Z,84.50
2022-11-29T11:34:53.572Z,83.83
2022-11-29T11:37:32.108Z,84.29
2022-11-29T11:40:17.944Z,84.88
2022-11-29T11:42:45.819Z,84.78
2022-11-29T11:45:13.439Z,84.44
2022-11-29T11:47:53.217Z,85.00
2022-11-29T11:50:34.512Z,85.38
2022-11-29T11:53:17.745Z,83.67
2022-11-29T11:56:10.834Z,84.25
2022-11-29T11:58:43.884Z,84.38
2022-11-29T12:01:26.925Z,84.74
2022-11-29T12:04:10.737Z,84.06
2022-11-29T12:06:53.905Z,84.88
2022-11-29T12:09:30.528Z,84.83
2022-11-29T12:12:20.264Z,84.08
2022-11-29T12:14:47.402Z,83.79
2022-11-29T12:17:44.106Z,84.00
2022-11-29T12:20:26.372Z,84.00
2022-11-29T12:23:02.124Z,84.21
2022-11-29T12:25:39.741Z,84.52
2022-11-29T12:28:15.760Z,84.95
2022-11-29T12:31:12.882Z,84.91
2022-11-29T12:34:10.542Z,84.35
2022-11-29T12:37:02.784Z,84.25
2022-11-29T12:39:32.663Z,83.67
2022-11-29T12:42:35.381Z,84.06
2022-11-29T12:45:02.045Z,83.78
2022-11-29T12:48:18.952Z,83.51
2022-11-29T12:50:58.529Z,84.79
2022-11-29T12:53:49.646Z,84.56
2022-11-29T12:56:41.762Z,84.91
2022-11-29T12:59:32.553Z,84.54
2022-11-29T13:02:11.478Z,83.84
2022-11-29T13:05:11.522Z,84.80
2022-11-29T13:08:15.385Z,85.53
2022-11-29T13:10:41.964Z,85.32
2022-11-29T13:13:27.615Z,85.70
2022-11-29T13:16:02.721Z,85.12
2022-11-29T13:18:29.245Z,85.18
2022-11-29T13:21:14.072Z,85.04
2022-11-29T13:24:09.029Z,85.63
2022-11-29T13:26:38.001Z,85.80
2022-11-29T13:29:07.606Z,85.95
2022-11-29T13:31:37.527Z,85.21
2022-11-29T13:34:29.766Z,84.51
2022-11-29T13:37:27.542Z,85.62
2022-11-29T13:40:07.825Z,86.03
2022-11-29T13:43:09.123Z,85.17
2022-11-29T13:45:46.806Z,85.76
2022-11-29T13:48:37.137Z,85.99
2022-11-29T13:51:27.077Z,85.63
2022-11-29T13:53:55.627Z,86.44
2022-11-29T13:56:42.753Z,86.39
2022-11-29T13:59:17.715Z,85.77
2022-11-29T14:01:51.725Z,85.88
2022-11-29T14:04:39.875Z,85.40
2022-11-29T14:07:18.490Z,85.57
2022-11-29T14:10:08.768Z,85.65
2022-11-29T14:12:56.093Z,85.99
2022-11-29T14:15:28.430Z,85.72
2022-11-29T14:18:02.482Z,85.55
2022-11-29T14:20:29.145Z,86.22
2022-11-29T14:23:05.013Z,85.88
2022-11-29T14:25:54.182Z,85.88
2022-11-29T14:28:20.947Z,85.45
2022-11-29T14:30:58.795Z,85.78
2022-11-29T14:34:08.964Z,86.24
2022-11-29T14:36:59.194Z,86.55
2022-11-29T14:39:31.914Z,86.00
2022-11-29T14:42:01.632Z,86.06
2022-11-29T14:44:32.019Z,85.81
2022-11-29T14:47:03.542Z,85.83
2022-11-29T14:49:31.979Z,85.85
2022-11-29T14:52:18.469Z,85.79
2022-11-29T14:54:54.615Z,85.84
2022-11-29T14:57:47.044Z,85.99
2022-11-29T15:00:24.540Z,85.57
2022-11-29T15:03:19.979Z,86.70
2022-11-29T15:05:54.472Z,86.64
2022-11-29T15:08:30.632Z,86.21
2022-11-29T15:11:00.156Z,86.41
2022-11-29T15:13:33.388Z,85.12
2022-11-29T15:16:08.693Z,85.22
2022-11-29T15:19:00.723Z,85.98
2022-11-29T15:22:28.193Z,85.27
2022-11-29T15:25:02.312Z,85.02
2022-11-29T15:27:29.136Z,85.45
2022-11-29T15:29:56.353Z,85.92
2022-11-29T15:32:31.370Z,86.05
2022-11-29T15:34:58.906Z,86.62
2022-11-29T15:37:35.790Z,85.61
2022-11-29T15:40:14.129Z,86.06
2022-11-29T15:43:23.301Z,86.65
2022-11-29T15:45:54.296Z,86.00
2022-11-29T15:48:22.729Z,87.07
2022-11-29T15:50:58.314Z,85.88
2022-11-29T15:53:30.790Z,85.61
2022-11-29T15:56:05.722Z,85.87
2022-11-29T15:58:34.738Z,85.84
2022-11-29T16:01:03.136Z,85.39
2022-11-29T16:03:38.090Z,86.03
2022-11-29T16:06:22.657Z,85.55
2022-11-29T16:08:50.214Z,86.52
2022-11-29T16:11:21.195Z,85.84
2022-11-29T16:14:12.878Z,86.32
2022-11-29T16:16:42.089Z,85.87
2022-11-29T16:19:17.104Z,86.75
2022-11-29T16:21:44.616Z,85.81
2022-11-29T16:24:24.784Z,86.38
2022-11-29T16:26:58.366Z,85.96
2022-11-29T16:29:36.220Z,86.54
2022-11-29T16:32:35.119Z,86.30
2022-11-29T16:35:22.314Z,85.90
2022-11-29T16:37:49.259Z,85.01
2022-11-29T16:40:35.594Z,85.14
2022-11-29T16:43:25.261Z,85.55
2022-11-29T16:46:21.575Z,85.27
2022-11-29T16:48:49.779Z,85.46
2022-11-29T16:51:50.417Z,84.85
2022-11-29T16:54:34.496Z,85.64
2022-11-29T16:57:06.432Z,86.43
2022-11-29T16:59:35.314Z,86.89
2022-11-29T17:02:03.030Z,86.46
2022-11-29T17:04:30.204Z,86.71
2022-11-29T17:06:58.248Z,86.26
2022-11-29T17:09:35.788Z,85.57
2022-11-29T17:12:03.181Z,85.73
2022-11-29T17:14:33.632Z,85.48
2022-11-29T17:17:05.568Z,85.87
2022-11-29T17:19:37.860Z,85.81
2022-11-29T17:22:04.985Z,86.44
2022-11-29T17:24:33.335Z,86.55
2022-11-29T17:27:00.373Z,86.35
2022-11-29T17:29:28.074Z,86.07
2022-11-29T17:31:56.630Z,86.21
2022-11-29T17:34:23.402Z,85.86
2022-11-29T17:36:51.765Z,85.50
2022-11-29T17:39:24.919Z,84.80
2022-11-29T17:41:57.066Z,85.34
2022-11-29T17:44:23.623Z,84.57
2022-11-29T17:46:50.757Z,85.20
2022-11-29T17:49:18.884Z,84.77
2022-11-29T17:51:53.580Z,84.75
2022-11-29T17:54:26.462Z,85.96
2022-11-29T17:56:53.302Z,85.57
2022-11-29T17:59:20.825Z,85.67
2022-11-29T18:01:47.868Z,85.53
2022-11-29T18:04:16.837Z,85.96
2022-11-29T18:06:43.934Z,85.90
2022-11-29T18:09:11.489Z,86.19
2022-11-29T18:11:48.090Z,85.89
2022-11-29T18:14:20.079Z,86.38
2022-11-29T18:16:48.457Z,86.18
2022-11-29T18:19:29.039Z,86.69
2022-11-29T18:21:55.869Z,86.15
2022-11-29T18:24:25.707Z,86.31
2022-11-29T18:26:53.918Z,85.52
2022-11-29T18:29:24.940Z,85.17
2022-11-29T18:31:53.254Z,86.00
2022-11-29T18:34:20.251Z,86.58
2022-11-29T18:36:48.660Z,85.81
2022-11-29T18:39:20.440Z,85.56
2022-11-29T18:41:49.957Z,84.69
2022-11-29T18:44:21.775Z,84.89
2022-11-29T18:46:48.997Z,85.19
2022-11-29T18:49:17.992Z,86.51
2022-11-29T18:51:46.445Z,85.80
2022-11-29T18:54:14.687Z,86.34
2022-11-29T18:56:42.291Z,86.04
2022-11-29T18:59:20.311Z,84.89
2022-11-29T19:01:48.238Z,86.13
2022-11-29T19:04:27.830Z,85.78
2022-11-29T19:06:57.890Z,85.21
2022-11-29T19:09:32.886Z,85.44
2022-11-29T19:14:51.017Z,85.41
2022-11-29T19:17:22.575Z,85.87
2022-11-29T19:19:51.650Z,85.69
2022-11-29T19:22:18.434Z,85.85
2022-11-29T19:24:45.307Z,85.57
2022-11-29T19:27:12.730Z,85.94
2022-11-29T19:29:39.997Z,85.91
2022-11-29T19:32:11.483Z,85.63
2022-11-29T19:34:41.506Z,85.89
2022-11-29T19:37:12.458Z,85.99
2022-11-29T19:39:40.323Z,85.58
2022-11-29T19:42:07.172Z,84.82
2022-11-29T19:45:14.828Z,85.75
2022-11-29T19:47:28.622Z,85.12
2022-11-29T19:50:02.053Z,84.52
2022-11-29T19:52:29.465Z,85.06
2022-11-29T19:55:04.277Z,84.96
2022-11-29T19:57:31.031Z,85.85
2022-11-29T19:59:57.772Z,85.18
2022-11-29T20:02:25.297Z,85.43
2022-11-29T20:04:55.638Z,85.71
2022-11-29T20:07:25.926Z,84.96
2022-11-29T20:09:52.679Z,85.91
2022-11-29T20:12:19.388Z,85.07
2022-11-29T20:14:46.712Z,85.02
2022-11-29T20:17:13.661Z,85.17
2022-11-29T20:19:40.454Z,84.62
2022-11-29T20:22:09.489Z,84.35
2022-11-29T20:24:41.229Z,84.57
2022-11-29T20:27:11.854Z,84.67
2022-11-29T20:29:39.985Z,84.63
2022-11-29T20:32:07.261Z,85.10
2022-11-29T20:34:34.128Z,84.87
2022-11-29T20:37:30.419Z,84.70
2022-11-29T20:40:05.685Z,84.63
2022-11-29T20:42:39.278Z,84.44
2022-11-29T20:45:08.819Z,84.54
2022-11-29T20:48:14.871Z,84.43
2022-11-29T20:50:51.927Z,85.17
2022-11-29T20:53:30.855Z,85.41
2022-11-29T20:55:58.304Z,85.43
2022-11-29T20:58:26.636Z,84.88
2022-11-29T21:00:57.702Z,85.00
2022-11-29T21:03:25.191Z,84.56
2022-11-29T21:05:55.009Z,84.41
2022-11-29T21:08:23.174Z,84.01
2022-11-29T21:10:50.627Z,84.34
2022-11-29T21:13:19.817Z,84.49
2022-11-29T21:15:47.068Z,85.50
2022-11-29T21:18:26.185Z,85.12
2022-11-29T21:21:08.519Z,83.54
2022-11-29T21:23:55.485Z,83.43
2022-11-29T21:26:38.646Z,84.29
2022-11-29T21:29:20.035Z,84.76
2022-11-29T21:31:51.707Z,84.92
2022-11-29T21:34:19.478Z,84.30
2022-11-29T21:36:59.781Z,84.94
2022-11-29T21:39:39.953Z,85.04
2022-11-29T21:42:06.611Z,84.51
2022-11-29T21:44:33.494Z,83.47
2022-11-29T21:47:02.366Z,84.55
2022-11-29T21:49:33.772Z,84.63
2022-11-29T21:52:01.264Z,84.64
2022-11-29T21:54:28.931Z,83.94
2022-11-29T21:56:56.228Z,84.21
2022-11-29T21:59:24.965Z,84.54
2022-11-29T22:01:52.805Z,84.47
2022-11-29T22:04:20.378Z,84.38
2022-11-29T22:06:47.523Z,84.10
2022-11-29T22:09:14.369Z,83.51
2022-11-29T22:11:41.251Z,83.40
2022-11-29T22:14:16.271Z,84.19
2022-11-29T22:16:58.019Z,83.94
2022-11-29T22:19:24.803Z,84.10
2022-11-29T22:21:54.092Z,83.75
2022-11-29T22:24:26.012Z,84.92
2022-11-29T22:26:53.665Z,84.83
2022-11-29T22:29:20.762Z,84.18
2022-11-29T22:31:49.787Z,84.74
2022-11-29T22:34:16.965Z,84.47
2022-11-29T22:36:45.693Z,84.56
2022-11-29T22:39:14.931Z,83.93
2022-11-29T22:41:52.265Z,84.47
2022-11-29T22:44:21.593Z,84.75
2022-11-29T22:46:48.546Z,84.87
2022-11-29T22:49:15.534Z,84.48
2022-11-29T22:51:42.469Z,84.33
2022-11-29T22:54:11.767Z,83.83
2022-11-29T22:56:40.469Z,84.06
2022-11-29T22:59:09.487Z,84.27
2022-11-29T23:02:19.181Z,84.33
2022-11-29T23:04:46.153Z,85.18
2022-11-29T23:07:18.077Z,84.52
2022-11-29T23:09:48.001Z,83.36
2022-11-29T23:12:16.424Z,84.23
2022-11-29T23:14:52.956Z,84.35
2022-11-29T23:17:22.887Z,84.02
2022-11-29T23:19:51.342Z,83.90
2022-11-29T23:22:27.600Z,83.90
2022-11-29T23:24:56.771Z,84.04
2022-11-29T23:27:26.299Z,83.56
2022-11-29T23:30:06.059Z,83.75
2022-11-29T23:32:32.780Z,83.90
2022-11-29T23:34:59.573Z,84.02
2022-11-29T23:37:31.454Z,83.96
2022-11-29T23:39:58.343Z,84.28
2022-11-29T23:42:25.809Z,84.89
2022-11-29T23:44:55.725Z,83.94
2022-11-29T23:47:25.953Z,83.70
2022-11-29T23:49:55.255Z,83.49
2022-11-29T23:52:22.036Z,84.16
2022-11-29T23:54:50.233Z,83.93
2022-11-29T23:57:22.323Z,84.34
2022-11-29T23:59:50.260Z,83.94
